Time;durP1;ratioP1;P1;durP2;ratioP2;P2;SDS_P1;SDS_P2;PMS_P1;PMS_P2;Temp;Humidity;BMP_temperature;BMP_pressure;BME280_temperature;BME280_humidity;BME280_pressure;Samples;Min_cycle;Max_cycle;Signal;HPM_P1;HPM_P2
2022/10/08 00:00:35;;;;;;;1.50;1.40;;;;;;;;;;5089938;28;20036;-41
2022/10/08 00:03:01;;;;;;;1.17;1.08;;;;;;;;;;5080057;28;20518;-40
2022/10/08 00:05:27;;;;;;;1.13;1.02;;;;;;;;;;5068915;28;20547;-40
2022/10/08 00:07:54;;;;;;;1.70;1.25;;;;;;;;;;5077538;28;20024;-40
2022/10/08 00:10:20;;;;;;;1.50;1.40;;;;;;;;;;5089039;28;20885;-40
2022/10/08 00:12:46;;;;;;;1.42;1.30;;;;;;;;;;5085585;28;20043;-41
2022/10/08 00:15:13;;;;;;;1.70;1.30;;;;;;;;;;5074802;28;20024;-41
2022/10/08 00:17:39;;;;;;;1.27;1.10;;;;;;;;;;5088031;28;20551;-41
2022/10/08 00:20:05;;;;;;;1.38;1.20;;;;;;;;;;5081169;28;20123;-40
2022/10/08 00:22:31;;;;;;;1.17;1.08;;;;;;;;;;5079448;28;20036;-41
2022/10/08 00:24:57;;;;;;;1.40;1.30;;;;;;;;;;5087973;28;20499;-40
2022/10/08 00:27:23;;;;;;;1.88;1.20;;;;;;;;;;5087635;28;20081;-40
2022/10/08 00:29:53;;;;;;;1.40;1.30;;;;;;;;;;5087556;28;20039;-40
2022/10/08 00:32:19;;;;;;;1.60;1.30;;;;;;;;;;5084372;28;20020;-40
2022/10/08 00:34:46;;;;;;;1.90;1.30;;;;;;;;;;5088544;28;21135;-40
2022/10/08 00:37:13;;;;;;;1.67;1.42;;;;;;;;;;5087142;28;20058;-40
2022/10/08 00:39:40;;;;;;;1.33;1.23;;;;;;;;;;5084716;28;20571;-40
2022/10/08 00:42:06;;;;;;;1.40;1.30;;;;;;;;;;5088805;28;20017;-40
2022/10/08 00:44:52;;;;;;;1.90;1.42;;;;;;;;;;5087945;28;20035;-40
2022/10/08 00:47:36;;;;;;;1.52;1.30;;;;;;;;;;5074233;28;20028;-40
2022/10/08 00:50:10;;;;;;;1.40;1.30;;;;;;;;;;5086336;28;20161;-41
2022/10/08 00:52:57;;;;;;;1.60;1.50;;;;;;;;;;5071172;28;20476;-40
2022/10/08 00:55:26;;;;;;;2.17;1.30;;;;;;;;;;5068305;28;20032;-41
2022/10/08 00:57:53;;;;;;;1.85;1.33;;;;;;;;;;5067992;28;20020;-40
2022/10/08 01:00:21;;;;;;;2.20;1.23;;;;;;;;;;5077884;28;20525;-40
2022/10/08 01:02:47;;;;;;;1.80;1.30;;;;;;;;;;5085076;28;20016;-40
2022/10/08 01:05:15;;;;;;;1.70;1.60;;;;;;;;;;5087173;28;20399;-41
2022/10/08 01:08:00;;;;;;;1.13;1.02;;;;;;;;;;5085997;28;20094;-40
2022/10/08 01:10:29;;;;;;;1.30;1.20;;;;;;;;;;5079533;28;20454;-40
2022/10/08 01:13:31;;;;;;;1.88;1.20;;;;;;;;;;5084118;28;20032;-41
2022/10/08 01:16:12;;;;;;;1.75;1.23;;;;;;;;;;5045174;28;20135;-40
2022/10/08 01:18:44;;;;;;;2.08;1.35;;;;;;;;;;5083094;28;20177;-40
2022/10/08 01:21:13;;;;;;;1.13;1.02;;;;;;;;;;5086547;28;20028;-41
2022/10/08 01:23:59;;;;;;;2.13;1.20;;;;;;;;;;5084199;28;20031;-40
2022/10/08 01:26:25;;;;;;;2.75;1.20;;;;;;;;;;5086048;28;20526;-41
2022/10/08 01:28:55;;;;;;;1.30;1.20;;;;;;;;;;5085391;28;20572;-40
2022/10/08 01:31:28;;;;;;;1.38;1.20;;;;;;;;;;5084489;28;20502;-40
2022/10/08 01:33:54;;;;;;;1.30;1.20;;;;;;;;;;5085060;28;20038;-41
2022/10/08 01:36:21;;;;;;;1.75;1.38;;;;;;;;;;5086331;28;20017;-40
2022/10/08 01:38:58;;;;;;;1.48;1.30;;;;;;;;;;5086725;28;20024;-41
2022/10/08 01:41:25;;;;;;;1.40;1.30;;;;;;;;;;5080071;28;20115;-40
2022/10/08 01:44:13;;;;;;;1.65;1.35;;;;;;;;;;5079497;28;20028;-40
2022/10/08 01:46:40;;;;;;;1.50;1.33;;;;;;;;;;5071225;28;20717;-41
2022/10/08 01:49:10;;;;;;;1.42;1.33;;;;;;;;;;5085701;28;20032;-41
2022/10/08 01:51:39;;;;;;;1.90;1.10;;;;;;;;;;5078231;28;20037;-40
2022/10/08 01:54:08;;;;;;;1.80;1.50;;;;;;;;;;5083267;28;20101;-41
2022/10/08 01:56:35;;;;;;;1.35;1.02;;;;;;;;;;5085714;28;20028;-41
2022/10/08 01:59:11;;;;;;;1.17;1.08;;;;;;;;;;5086377;28;20043;-40
2022/10/08 02:01:43;;;;;;;2.03;1.65;;;;;;;;;;5086285;28;20128;-40
2022/10/08 02:06:56;;;;;;;2.83;1.90;;;;;;;;;;5069803;28;20090;-41
2022/10/08 02:09:26;;;;;;;5.18;3.08;;;;;;;;;;5086749;28;20035;-40
2022/10/08 02:11:52;;;;;;;4.88;2.97;;;;;;;;;;5078512;28;20025;-40
2022/10/08 02:14:20;;;;;;;4.22;2.33;;;;;;;;;;5067339;28;20028;-40
2022/10/08 02:16:52;;;;;;;4.32;2.20;;;;;;;;;;5072085;28;20038;-41
2022/10/08 02:19:21;;;;;;;1.85;1.60;;;;;;;;;;5086648;28;20122;-40
2022/10/08 02:21:51;;;;;;;3.38;2.08;;;;;;;;;;5084472;28;21262;-40
2022/10/08 02:24:19;;;;;;;1.98;1.50;;;;;;;;;;5085763;28;20046;-40
2022/10/08 02:26:48;;;;;;;1.90;1.55;;;;;;;;;;5072332;28;20028;-40
2022/10/08 02:29:17;;;;;;;1.67;1.42;;;;;;;;;;5069035;28;20450;-40
2022/10/08 02:31:46;;;;;;;2.13;1.30;;;;;;;;;;5085187;28;20036;-41
2022/10/08 02:34:14;;;;;;;1.42;1.23;;;;;;;;;;5086048;28;20671;-40
2022/10/08 02:36:41;;;;;;;1.15;1.05;;;;;;;;;;5077687;28;20534;-40
2022/10/08 02:39:08;;;;;;;1.75;1.08;;;;;;;;;;5079412;28;20024;-40
2022/10/08 02:41:40;;;;;;;2.33;1.35;;;;;;;;;;5085334;28;20025;-40
2022/10/08 02:44:08;;;;;;;1.10;1.00;;;;;;;;;;5088947;28;20019;-40
2022/10/08 02:46:37;;;;;;;1.73;1.42;;;;;;;;;;5076485;28;20033;-40
2022/10/08 02:49:08;;;;;;;2.03;1.30;;;;;;;;;;5092380;28;20144;-41
2022/10/08 02:51:37;;;;;;;1.48;1.20;;;;;;;;;;5091438;28;20269;-40
2022/10/08 02:54:04;;;;;;;1.40;1.23;;;;;;;;;;5073809;28;20064;-40
2022/10/08 02:56:37;;;;;;;1.50;1.40;;;;;;;;;;5075698;28;20114;-40
2022/10/08 02:59:04;;;;;;;1.55;1.10;;;;;;;;;;5082330;28;20392;-40
2022/10/08 03:01:39;;;;;;;1.30;1.20;;;;;;;;;;5088435;28;20051;-41
2022/10/08 03:04:17;;;;;;;1.40;1.10;;;;;;;;;;5089666;28;20054;-40
2022/10/08 03:06:44;;;;;;;1.30;1.20;;;;;;;;;;5091638;28;20020;-40
2022/10/08 03:09:10;;;;;;;1.63;1.33;;;;;;;;;;5092852;28;20069;-41
2022/10/08 03:11:37;;;;;;;1.58;1.17;;;;;;;;;;5086540;28;20097;-41
2022/10/08 03:14:05;;;;;;;1.40;1.20;;;;;;;;;;5083041;28;20036;-41
2022/10/08 03:16:57;;;;;;;1.25;1.00;;;;;;;;;;5092642;28;20035;-40
2022/10/08 03:19:23;;;;;;;1.77;1.20;;;;;;;;;;5090967;28;20047;-40
2022/10/08 03:21:52;;;;;;;1.40;1.10;;;;;;;;;;5091781;28;20020;-41
2022/10/08 03:24:18;;;;;;;1.27;1.13;;;;;;;;;;5073426;28;20055;-40
2022/10/08 03:26:44;;;;;;;1.10;1.00;;;;;;;;;;5090405;28;20055;-40
2022/10/08 03:29:10;;;;;;;1.13;1.00;;;;;;;;;;5091457;28;20028;-40
2022/10/08 03:31:36;;;;;;;1.02;0.93;;;;;;;;;;5091902;28;20103;-40
2022/10/08 03:34:02;;;;;;;1.42;1.20;;;;;;;;;;5091220;28;20035;-40
2022/10/08 03:36:29;;;;;;;1.27;0.98;;;;;;;;;;5086843;28;20483;-40
2022/10/08 03:38:55;;;;;;;1.25;1.10;;;;;;;;;;5090471;28;20623;-41
2022/10/08 03:41:21;;;;;;;1.23;1.10;;;;;;;;;;5092373;28;20039;-41
2022/10/08 03:43:47;;;;;;;1.58;1.17;;;;;;;;;;5085519;28;20024;-41
2022/10/08 03:46:14;;;;;;;0.88;0.88;;;;;;;;;;5072483;28;20039;-41
2022/10/08 03:48:40;;;;;;;1.15;0.95;;;;;;;;;;5083420;28;20031;-41
2022/10/08 03:51:09;;;;;;;1.40;1.10;;;;;;;;;;5088914;28;20028;-40
2022/10/08 03:53:36;;;;;;;1.20;1.10;;;;;;;;;;5090001;28;20065;-40
2022/10/08 03:56:07;;;;;;;1.08;1.00;;;;;;;;;;5086905;28;20047;-40
2022/10/08 03:58:34;;;;;;;1.02;0.95;;;;;;;;;;5080627;28;20040;-41
2022/10/08 04:01:01;;;;;;;1.80;1.08;;;;;;;;;;5079932;28;20024;-40
2022/10/08 04:03:28;;;;;;;1.55;1.10;;;;;;;;;;5085833;28;20031;-41
2022/10/08 04:05:54;;;;;;;1.25;1.13;;;;;;;;;;5085334;28;20024;-41
2022/10/08 04:08:21;;;;;;;1.45;1.20;;;;;;;;;;5087788;28;20517;-41
2022/10/08 04:10:47;;;;;;;1.70;1.08;;;;;;;;;;5087212;28;20772;-40
2022/10/08 04:13:14;;;;;;;1.92;1.23;;;;;;;;;;5071349;28;20040;-40
2022/10/08 04:15:39;;;;;;;2.47;1.38;;;;;;;;;;5068524;28;20071;-41
2022/10/08 04:18:06;;;;;;;2.08;1.27;;;;;;;;;;5086293;28;20499;-40
2022/10/08 04:20:32;;;;;;;1.45;1.17;;;;;;;;;;5087960;28;20108;-41
2022/10/08 04:22:58;;;;;;;1.38;1.17;;;;;;;;;;5076991;28;20032;-40
2022/10/08 04:25:24;;;;;;;1.25;1.15;;;;;;;;;;5077407;28;20099;-40
2022/10/08 04:27:50;;;;;;;2.53;1.40;;;;;;;;;;5085920;28;20043;-41
2022/10/08 04:30:16;;;;;;;1.77;1.42;;;;;;;;;;5087413;28;20483;-41
2022/10/08 04:32:43;;;;;;;2.97;1.73;;;;;;;;;;5085523;28;20032;-40
2022/10/08 04:35:09;;;;;;;2.40;1.75;;;;;;;;;;5074571;28;20030;-41
2022/10/08 04:37:35;;;;;;;2.53;1.58;;;;;;;;;;5075694;28;20111;-41
2022/10/08 04:40:01;;;;;;;2.45;1.42;;;;;;;;;;5088642;28;20135;-40
2022/10/08 04:42:27;;;;;;;2.08;1.70;;;;;;;;;;5068583;28;20103;-41
2022/10/08 04:44:53;;;;;;;2.83;1.70;;;;;;;;;;5080731;28;20028;-40
2022/10/08 04:47:19;;;;;;;2.13;1.80;;;;;;;;;;5068787;28;20036;-40
2022/10/08 04:49:45;;;;;;;1.75;1.55;;;;;;;;;;5069702;28;20066;-40
2022/10/08 04:52:12;;;;;;;1.75;1.58;;;;;;;;;;5077132;28;20040;-41
2022/10/08 04:54:38;;;;;;;1.83;1.45;;;;;;;;;;5071104;28;20082;-41
2022/10/08 04:57:04;;;;;;;1.42;1.33;;;;;;;;;;5082675;28;20524;-41
2022/10/08 04:59:30;;;;;;;1.70;1.60;;;;;;;;;;5078142;28;20526;-40
2022/10/08 05:01:57;;;;;;;1.77;1.27;;;;;;;;;;5077289;28;20522;-41
2022/10/08 05:04:23;;;;;;;1.30;1.20;;;;;;;;;;5068937;28;20552;-40
2022/10/08 05:06:49;;;;;;;1.30;1.20;;;;;;;;;;5081469;28;20411;-41
2022/10/08 05:09:15;;;;;;;4.20;1.27;;;;;;;;;;5073564;28;20100;-40
2022/10/08 05:11:41;;;;;;;1.50;1.40;;;;;;;;;;5084499;28;20036;-40
2022/10/08 05:14:08;;;;;;;2.05;1.58;;;;;;;;;;5077469;28;20024;-41
2022/10/08 05:16:35;;;;;;;2.17;1.30;;;;;;;;;;5076199;28;20579;-41
2022/10/08 05:19:02;;;;;;;1.92;1.33;;;;;;;;;;5075034;28;20112;-41
2022/10/08 05:21:29;;;;;;;1.60;1.40;;;;;;;;;;5081797;28;20027;-41
2022/10/08 05:23:56;;;;;;;2.10;1.55;;;;;;;;;;5071917;28;20040;-41
2022/10/08 05:26:24;;;;;;;1.48;1.38;;;;;;;;;;5085873;28;20031;-41
2022/10/08 05:28:53;;;;;;;1.45;1.35;;;;;;;;;;5084709;28;20505;-41
2022/10/08 05:31:19;;;;;;;1.40;1.30;;;;;;;;;;5085719;28;20095;-40
2022/10/08 05:33:45;;;;;;;2.53;1.58;;;;;;;;;;5085284;28;20028;-40
2022/10/08 05:36:19;;;;;;;1.83;1.10;;;;;;;;;;5085023;28;20032;-40
2022/10/08 05:38:45;;;;;;;1.70;1.60;;;;;;;;;;5073653;28;20478;-40
2022/10/08 05:41:18;;;;;;;2.20;1.77;;;;;;;;;;5082578;28;20056;-41
2022/10/08 05:43:45;;;;;;;1.83;1.60;;;;;;;;;;5072058;28;20056;-40
2022/10/08 05:46:11;;;;;;;2.42;1.70;;;;;;;;;;5082385;28;20040;-41
2022/10/08 05:48:38;;;;;;;2.25;1.58;;;;;;;;;;5085093;28;20024;-40
2022/10/08 05:51:05;;;;;;;1.95;1.75;;;;;;;;;;5081513;28;20055;-40
2022/10/08 05:53:33;;;;;;;1.75;1.65;;;;;;;;;;5087585;28;20545;-40
2022/10/08 05:56:03;;;;;;;1.85;1.40;;;;;;;;;;5086435;28;20028;-40
2022/10/08 05:58:29;;;;;;;2.45;1.58;;;;;;;;;;5076653;28;20024;-40
2022/10/08 06:00:56;;;;;;;1.95;1.35;;;;;;;;;;5084380;28;20089;-40
2022/10/08 06:03:22;;;;;;;2.03;1.55;;;;;;;;;;5082587;28;20031;-41
2022/10/08 06:05:48;;;;;;;2.00;1.40;;;;;;;;;;5084040;28;20488;-41
2022/10/08 06:08:14;;;;;;;1.30;1.15;;;;;;;;;;5086278;28;20028;-40
2022/10/08 06:10:50;;;;;;;1.60;1.27;;;;;;;;;;5084956;28;20863;-42
2022/10/08 06:13:16;;;;;;;1.50;1.40;;;;;;;;;;5084787;28;20028;-40
2022/10/08 06:15:42;;;;;;;1.75;1.27;;;;;;;;;;5081658;28;20118;-41
2022/10/08 06:18:08;;;;;;;1.25;1.10;;;;;;;;;;5083249;28;20031;-40
2022/10/08 06:20:38;;;;;;;2.13;1.42;;;;;;;;;;5082760;28;20526;-40
2022/10/08 06:23:04;;;;;;;2.03;1.50;;;;;;;;;;5082455;28;20360;-40
2022/10/08 06:25:30;;;;;;;1.40;1.23;;;;;;;;;;5081399;28;20027;-40
2022/10/08 06:27:56;;;;;;;1.42;1.33;;;;;;;;;;5079351;28;20389;-40
2022/10/08 06:30:23;;;;;;;2.13;1.50;;;;;;;;;;5074524;28;20038;-40
2022/10/08 06:32:49;;;;;;;1.75;1.55;;;;;;;;;;5084023;28;20526;-40
2022/10/08 06:35:15;;;;;;;2.03;1.83;;;;;;;;;;5074826;28;20043;-40
2022/10/08 06:37:41;;;;;;;2.35;1.77;;;;;;;;;;5084984;28;20032;-40
2022/10/08 06:40:07;;;;;;;2.03;1.40;;;;;;;;;;5086421;28;20703;-40
2022/10/08 06:42:33;;;;;;;2.50;1.52;;;;;;;;;;5081249;28;20404;-40
2022/10/08 06:44:59;;;;;;;1.55;1.45;;;;;;;;;;5076416;28;20547;-41
2022/10/08 06:47:25;;;;;;;1.50;1.40;;;;;;;;;;5085576;28;20028;-40
2022/10/08 06:49:51;;;;;;;1.80;1.42;;;;;;;;;;5086494;28;20032;-40
2022/10/08 06:52:18;;;;;;;1.52;1.42;;;;;;;;;;5079861;28;20035;-40
2022/10/08 06:54:44;;;;;;;1.42;1.27;;;;;;;;;;5075690;28;20052;-40
2022/10/08 06:57:10;;;;;;;1.33;1.10;;;;;;;;;;5076387;28;20027;-41
2022/10/08 06:59:36;;;;;;;1.98;1.77;;;;;;;;;;5075249;28;20036;-40
2022/10/08 07:02:02;;;;;;;1.70;1.42;;;;;;;;;;5077186;28;20506;-40
2022/10/08 07:04:28;;;;;;;1.50;1.38;;;;;;;;;;5075826;28;20098;-40
2022/10/08 07:06:54;;;;;;;2.67;1.38;;;;;;;;;;5075394;28;20020;-40
2022/10/08 07:09:20;;;;;;;2.08;1.63;;;;;;;;;;5079757;28;20077;-41
2022/10/08 07:11:46;;;;;;;1.77;1.45;;;;;;;;;;5075115;28;20559;-40
2022/10/08 07:14:12;;;;;;;2.28;1.80;;;;;;;;;;5080629;28;20176;-40
2022/10/08 07:16:38;;;;;;;1.77;1.40;;;;;;;;;;5076185;28;20036;-40
2022/10/08 07:19:04;;;;;;;3.85;1.58;;;;;;;;;;5077379;28;20032;-40
2022/10/08 07:21:30;;;;;;;1.55;1.45;;;;;;;;;;5075845;28;20016;-41
2022/10/08 07:23:58;;;;;;;2.00;1.70;;;;;;;;;;5073171;28;20037;-40
2022/10/08 07:26:25;;;;;;;2.60;1.25;;;;;;;;;;5077537;28;20024;-40
2022/10/08 07:28:59;;;;;;;1.48;1.33;;;;;;;;;;5076287;28;20415;-40
2022/10/08 07:31:30;;;;;;;1.42;1.33;;;;;;;;;;5076224;28;20391;-40
2022/10/08 07:33:59;;;;;;;2.78;1.70;;;;;;;;;;5078873;28;20032;-40
2022/10/08 07:36:26;;;;;;;1.70;1.60;;;;;;;;;;5078359;28;20031;-40
2022/10/08 07:38:56;;;;;;;1.60;1.50;;;;;;;;;;5082438;28;20031;-40
2022/10/08 07:41:22;;;;;;;2.00;1.67;;;;;;;;;;5079421;28;20522;-40
2022/10/08 07:43:51;;;;;;;1.52;1.42;;;;;;;;;;5078952;28;20016;-41
2022/10/08 07:46:18;;;;;;;1.90;1.60;;;;;;;;;;5076045;28;20546;-58
2022/10/08 07:48:44;;;;;;;2.33;1.60;;;;;;;;;;5078476;28;20032;-58
2022/10/08 07:51:11;;;;;;;3.90;1.45;;;;;;;;;;5076934;28;20056;-57
2022/10/08 07:53:38;;;;;;;2.08;1.80;;;;;;;;;;5077900;28;20024;-58
2022/10/08 07:56:05;;;;;;;3.30;2.63;;;;;;;;;;5079349;28;20031;-57
2022/10/08 07:58:31;;;;;;;4.43;2.65;;;;;;;;;;5078869;28;20096;-57
2022/10/08 08:00:58;;;;;;;2.83;2.40;;;;;;;;;;5075751;28;20085;-58
2022/10/08 08:03:24;;;;;;;4.90;3.17;;;;;;;;;;5076631;28;20480;-58
2022/10/08 08:05:52;;;;;;;4.57;3.13;;;;;;;;;;5079055;28;20035;-58
2022/10/08 08:08:22;;;;;;;4.10;3.10;;;;;;;;;;5079348;28;20023;-58
2022/10/08 08:10:48;;;;;;;7.68;3.70;;;;;;;;;;5076446;28;20026;-58
2022/10/08 08:13:14;;;;;;;7.25;3.80;;;;;;;;;;5075851;28;20135;-58
2022/10/08 08:15:40;;;;;;;6.95;3.90;;;;;;;;;;5080149;28;20032;-58
2022/10/08 08:18:06;;;;;;;8.75;3.95;;;;;;;;;;5087270;28;20124;-58
2022/10/08 08:20:32;;;;;;;6.85;4.00;;;;;;;;;;5078487;28;20028;-58
2022/10/08 08:22:58;;;;;;;4.68;3.10;;;;;;;;;;5078105;28;20107;-58
2022/10/08 08:25:24;;;;;;;5.03;3.22;;;;;;;;;;5077142;28;20446;-58
2022/10/08 08:27:50;;;;;;;5.85;3.30;;;;;;;;;;5077305;28;20431;-58
2022/10/08 08:30:16;;;;;;;5.90;3.28;;;;;;;;;;5075492;28;20085;-58
2022/10/08 08:32:43;;;;;;;4.95;2.80;;;;;;;;;;5076874;28;20103;-58
2022/10/08 08:35:09;;;;;;;5.03;2.92;;;;;;;;;;5076740;28;20032;-58
2022/10/08 08:37:36;;;;;;;3.85;3.45;;;;;;;;;;5076558;28;20510;-57
2022/10/08 08:40:02;;;;;;;3.10;2.55;;;;;;;;;;5078414;28;20036;-58
2022/10/08 08:42:42;;;;;;;3.05;2.72;;;;;;;;;;5079334;28;20099;-58
2022/10/08 08:45:27;;;;;;;4.03;2.70;;;;;;;;;;5078569;28;20035;-58
2022/10/08 08:47:59;;;;;;;4.00;2.50;;;;;;;;;;5076633;28;20648;-59
2022/10/08 08:50:28;;;;;;;3.22;2.40;;;;;;;;;;5078250;28;20021;-58
2022/10/08 08:52:55;;;;;;;3.17;2.30;;;;;;;;;;5077229;28;20028;-58
2022/10/08 08:55:27;;;;;;;2.70;1.95;;;;;;;;;;5076960;28;20024;-58
2022/10/08 08:58:00;;;;;;;2.05;1.80;;;;;;;;;;5077441;28;20111;-58
2022/10/08 09:00:34;;;;;;;2.90;1.98;;;;;;;;;;5075390;28;20054;-59
2022/10/08 09:03:04;;;;;;;2.05;1.80;;;;;;;;;;5075710;28;20105;-58
2022/10/08 09:05:33;;;;;;;2.83;2.00;;;;;;;;;;5074702;28;20680;-59
2022/10/08 09:08:04;;;;;;;3.15;1.88;;;;;;;;;;5077141;28;20103;-58
2022/10/08 09:10:41;;;;;;;2.03;1.70;;;;;;;;;;5076282;28;20024;-59
2022/10/08 09:13:13;;;;;;;2.15;1.70;;;;;;;;;;5075064;28;20028;-58
2022/10/08 09:15:42;;;;;;;1.77;1.60;;;;;;;;;;5078224;28;20115;-59
2022/10/08 09:18:10;;;;;;;2.28;1.70;;;;;;;;;;5069555;28;20146;-59
2022/10/08 09:20:38;;;;;;;1.80;1.70;;;;;;;;;;5070601;28;20032;-59
2022/10/08 09:23:10;;;;;;;1.60;1.50;;;;;;;;;;5081171;28;20101;-59
2022/10/08 09:25:37;;;;;;;2.72;1.60;;;;;;;;;;5086677;28;20078;-58
2022/10/08 09:28:03;;;;;;;1.92;1.73;;;;;;;;;;5084118;28;20476;-59
2022/10/08 09:30:37;;;;;;;1.80;1.70;;;;;;;;;;5086771;28;20032;-59
2022/10/08 09:33:12;;;;;;;1.73;1.50;;;;;;;;;;5087069;28;20052;-59
2022/10/08 09:35:47;;;;;;;2.05;1.80;;;;;;;;;;5083589;28;20054;-58
2022/10/08 09:38:20;;;;;;;1.90;1.80;;;;;;;;;;5081986;28;20085;-58
2022/10/08 09:41:13;;;;;;;3.13;2.35;;;;;;;;;;5085802;28;20482;-59
2022/10/08 09:43:39;;;;;;;2.78;2.00;;;;;;;;;;5077677;28;20041;-59
2022/10/08 09:46:26;;;;;;;2.03;1.83;;;;;;;;;;5075928;28;20049;-59
2022/10/08 09:48:52;;;;;;;2.75;2.10;;;;;;;;;;5074136;28;20028;-59
2022/10/08 09:51:19;;;;;;;2.63;2.17;;;;;;;;;;5074102;28;20456;-59
2022/10/08 09:53:50;;;;;;;3.90;2.60;;;;;;;;;;5078302;28;20028;-59
2022/10/08 09:56:26;;;;;;;2.97;2.13;;;;;;;;;;5080219;28;20038;-59
2022/10/08 09:58:53;;;;;;;2.90;2.40;;;;;;;;;;5080065;28;20059;-59
2022/10/08 10:01:19;;;;;;;2.63;2.00;;;;;;;;;;5081594;28;20023;-59
2022/10/08 10:04:05;;;;;;;2.50;2.30;;;;;;;;;;5076570;28;20024;-59
2022/10/08 10:06:33;;;;;;;3.08;2.03;;;;;;;;;;5072173;28;20026;-59
2022/10/08 10:09:18;;;;;;;3.25;2.40;;;;;;;;;;5076782;28;20032;-59
2022/10/08 10:11:52;;;;;;;2.58;2.30;;;;;;;;;;5072063;28;20044;-59
2022/10/08 10:14:27;;;;;;;2.97;2.42;;;;;;;;;;5075145;28;20103;-59
2022/10/08 10:17:04;;;;;;;2.92;2.53;;;;;;;;;;5072827;28;20036;-59
2022/10/08 10:19:37;;;;;;;2.42;2.15;;;;;;;;;;5075723;28;20040;-58
2022/10/08 10:22:05;;;;;;;2.85;2.22;;;;;;;;;;5078690;28;20043;-59
2022/10/08 10:24:44;;;;;;;3.40;2.17;;;;;;;;;;5080938;28;20028;-58
2022/10/08 10:27:15;;;;;;;2.80;2.30;;;;;;;;;;5083863;28;20858;-59
2022/10/08 10:30:00;;;;;;;2.85;2.20;;;;;;;;;;5087142;28;20024;-58
2022/10/08 10:32:48;;;;;;;2.53;2.22;;;;;;;;;;5083628;28;20036;-59
2022/10/08 10:35:20;;;;;;;2.70;2.00;;;;;;;;;;5079034;28;20456;-58
2022/10/08 10:37:56;;;;;;;2.40;2.10;;;;;;;;;;5082834;28;20100;-58
2022/10/08 10:40:45;;;;;;;2.53;2.13;;;;;;;;;;5072432;28;20043;-58
2022/10/08 10:43:12;;;;;;;2.25;2.05;;;;;;;;;;5072098;28;20036;-58
2022/10/08 10:45:38;;;;;;;4.35;2.70;;;;;;;;;;5085739;28;20384;-58
2022/10/08 10:48:07;;;;;;;2.13;1.92;;;;;;;;;;5080604;28;20107;-58
2022/10/08 10:50:42;;;;;;;2.20;2.00;;;;;;;;;;5082710;28;20033;-58
2022/10/08 10:53:28;;;;;;;1.80;1.70;;;;;;;;;;5085243;28;20063;-58
2022/10/08 10:56:01;;;;;;;3.17;2.25;;;;;;;;;;5075071;28;20036;-58
2022/10/08 10:58:35;;;;;;;2.38;2.13;;;;;;;;;;5085450;28;20073;-58
2022/10/08 11:01:13;;;;;;;3.10;2.00;;;;;;;;;;5082427;28;20028;-58
2022/10/08 11:03:59;;;;;;;2.45;1.98;;;;;;;;;;5071600;28;20055;-58
2022/10/08 11:06:38;;;;;;;3.65;2.38;;;;;;;;;;5082126;28;20032;-58
2022/10/08 11:09:10;;;;;;;2.28;1.90;;;;;;;;;;5088882;28;20499;-58
2022/10/08 11:11:45;;;;;;;2.83;1.75;;;;;;;;;;5082718;28;20100;-58
2022/10/08 11:14:30;;;;;;;1.98;1.70;;;;;;;;;;5085907;28;20032;-58
2022/10/08 11:16:56;;;;;;;3.08;1.75;;;;;;;;;;5087896;28;20044;-57
2022/10/08 11:19:40;;;;;;;2.20;1.83;;;;;;;;;;5071750;28;20070;-58
2022/10/08 11:22:25;;;;;;;3.05;2.08;;;;;;;;;;5084554;28;20037;-58
2022/10/08 11:24:55;;;;;;;2.17;1.70;;;;;;;;;;5077813;28;20392;-58
2022/10/08 11:27:25;;;;;;;2.33;1.80;;;;;;;;;;5089105;28;20043;-58
2022/10/08 11:29:55;;;;;;;1.80;1.70;;;;;;;;;;5086069;28;20028;-58
2022/10/08 11:32:22;;;;;;;2.47;1.90;;;;;;;;;;5084383;28;20606;-58
2022/10/08 11:34:53;;;;;;;2.03;1.63;;;;;;;;;;5084226;28;20036;-58
2022/10/08 11:37:38;;;;;;;2.28;1.58;;;;;;;;;;5084849;28;20071;-58
2022/10/08 11:40:10;;;;;;;2.30;1.50;;;;;;;;;;5080863;28;20025;-58
2022/10/08 11:42:39;;;;;;;1.92;1.20;;;;;;;;;;5086974;28;20032;-58
2022/10/08 11:45:24;;;;;;;2.33;1.70;;;;;;;;;;5081085;28;20025;-58
2022/10/08 11:47:56;;;;;;;2.67;2.08;;;;;;;;;;5087445;28;20043;-58
2022/10/08 11:50:27;;;;;;;2.72;1.50;;;;;;;;;;5082262;28;20020;-58
2022/10/08 11:52:54;;;;;;;2.33;1.60;;;;;;;;;;5085160;28;20144;-58
2022/10/08 11:55:25;;;;;;;1.98;1.42;;;;;;;;;;5085173;28;20029;-58
2022/10/08 11:57:56;;;;;;;3.35;1.73;;;;;;;;;;5088651;28;20407;-58
2022/10/08 12:00:37;;;;;;;1.92;1.38;;;;;;;;;;5086726;28;20475;-58
2022/10/08 12:03:05;;;;;;;2.35;1.60;;;;;;;;;;5075092;28;20040;-58
2022/10/08 12:05:39;;;;;;;1.73;1.33;;;;;;;;;;5076685;28;20050;-58
2022/10/08 12:08:06;;;;;;;2.30;1.58;;;;;;;;;;5087535;28;20032;-58
2022/10/08 12:10:33;;;;;;;1.83;1.38;;;;;;;;;;5089377;28;20532;-58
2022/10/08 12:13:04;;;;;;;1.67;1.40;;;;;;;;;;5088443;28;20488;-58
2022/10/08 12:15:32;;;;;;;2.22;1.45;;;;;;;;;;5084514;28;20035;-58
2022/10/08 12:18:00;;;;;;;1.50;1.08;;;;;;;;;;5084204;28;20032;-58
2022/10/08 12:20:28;;;;;;;3.33;1.50;;;;;;;;;;5089219;28;20107;-58
2022/10/08 12:23:00;;;;;;;1.92;1.27;;;;;;;;;;5079201;28;20020;-58
2022/10/08 12:25:49;;;;;;;1.88;1.30;;;;;;;;;;5077150;28;20580;-58
2022/10/08 12:28:18;;;;;;;1.92;1.15;;;;;;;;;;5082456;28;20071;-58
2022/10/08 12:30:54;;;;;;;1.35;1.20;;;;;;;;;;5086212;28;20032;-58
2022/10/08 12:33:21;;;;;;;1.27;1.17;;;;;;;;;;5082363;28;20032;-58
2022/10/08 12:35:47;;;;;;;1.75;1.10;;;;;;;;;;5084815;28;20024;-58
2022/10/08 12:38:13;;;;;;;1.77;1.08;;;;;;;;;;5076007;28;20388;-58
2022/10/08 12:40:49;;;;;;;2.17;1.27;;;;;;;;;;5087797;28;20024;-58
2022/10/08 12:43:24;;;;;;;2.45;1.20;;;;;;;;;;5086727;28;20028;-58
2022/10/08 12:45:56;;;;;;;1.90;1.17;;;;;;;;;;5088271;28;20023;-58
2022/10/08 12:48:32;;;;;;;1.83;1.27;;;;;;;;;;5087456;28;20060;-58
2022/10/08 12:51:01;;;;;;;1.65;1.17;;;;;;;;;;5088453;28;20483;-58
2022/10/08 12:53:28;;;;;;;2.75;1.20;;;;;;;;;;5087792;28;20024;-58
2022/10/08 12:55:57;;;;;;;1.20;1.00;;;;;;;;;;5087854;28;20036;-58
2022/10/08 12:58:31;;;;;;;1.45;1.10;;;;;;;;;;5087942;28;20493;-58
2022/10/08 13:01:01;;;;;;;1.15;1.02;;;;;;;;;;5082817;28;20031;-58
2022/10/08 13:03:27;;;;;;;1.70;1.20;;;;;;;;;;5077044;28;20090;-58
2022/10/08 13:05:56;;;;;;;0.93;0.85;;;;;;;;;;5076019;28;20110;-58
2022/10/08 13:08:37;;;;;;;1.30;0.90;;;;;;;;;;5088211;28;20020;-58
2022/10/08 13:11:05;;;;;;;0.85;0.80;;;;;;;;;;5086548;28;20032;-58
2022/10/08 13:13:40;;;;;;;0.98;0.80;;;;;;;;;;5086566;28;20028;-58
2022/10/08 13:16:09;;;;;;;1.90;1.05;;;;;;;;;;5087422;28;20110;-58
2022/10/08 13:18:37;;;;;;;1.83;1.23;;;;;;;;;;5087569;28;20028;-58
2022/10/08 13:21:07;;;;;;;1.05;0.95;;;;;;;;;;5086954;28;20397;-58
2022/10/08 13:23:52;;;;;;;1.13;1.00;;;;;;;;;;5082751;28;20546;-58
2022/10/08 13:26:36;;;;;;;2.13;1.08;;;;;;;;;;5080827;28;20031;-58
2022/10/08 13:29:20;;;;;;;3.38;0.93;;;;;;;;;;5087397;28;20040;-58
2022/10/08 13:31:56;;;;;;;1.85;1.17;;;;;;;;;;5085682;28;20103;-58
2022/10/08 13:34:23;;;;;;;1.02;0.90;;;;;;;;;;5086203;28;20395;-58
2022/10/08 13:36:50;;;;;;;1.27;1.17;;;;;;;;;;5086769;28;20028;-58
2022/10/08 13:39:21;;;;;;;0.70;0.70;;;;;;;;;;5083333;28;20035;-58
2022/10/08 13:41:51;;;;;;;1.80;0.90;;;;;;;;;;5081690;28;20020;-58
2022/10/08 13:44:17;;;;;;;1.20;1.00;;;;;;;;;;5087639;28;20106;-58
2022/10/08 13:46:43;;;;;;;2.33;1.00;;;;;;;;;;5086376;28;20035;-58
2022/10/08 13:49:20;;;;;;;1.25;0.90;;;;;;;;;;5085788;28;20028;-58
2022/10/08 13:51:46;;;;;;;1.55;0.90;;;;;;;;;;5084853;28;20024;-58
2022/10/08 13:54:14;;;;;;;1.45;0.90;;;;;;;;;;5085950;28;20027;-58
2022/10/08 13:56:40;;;;;;;0.80;0.80;;;;;;;;;;5085150;28;20020;-58
2022/10/08 13:59:08;;;;;;;1.60;0.93;;;;;;;;;;5087405;28;20531;-58
2022/10/08 14:01:34;;;;;;;1.52;0.98;;;;;;;;;;5086486;28;20122;-58
2022/10/08 14:04:00;;;;;;;1.05;0.80;;;;;;;;;;5087424;28;20424;-58
2022/10/08 14:06:27;;;;;;;1.40;0.90;;;;;;;;;;5085804;28;20119;-58
2022/10/08 14:08:53;;;;;;;1.30;0.70;;;;;;;;;;5085787;28;20035;-58
2022/10/08 14:11:19;;;;;;;2.58;0.80;;;;;;;;;;5087061;28;20054;-58
2022/10/08 14:13:45;;;;;;;1.05;0.77;;;;;;;;;;5086828;28;20032;-58
2022/10/08 14:16:14;;;;;;;1.45;0.70;;;;;;;;;;5086662;28;20020;-58
2022/10/08 14:18:40;;;;;;;1.83;0.73;;;;;;;;;;5086504;28;20032;-58
2022/10/08 14:21:06;;;;;;;0.80;0.80;;;;;;;;;;5086847;28;20085;-58
2022/10/08 14:23:32;;;;;;;0.50;0.50;;;;;;;;;;5086029;28;20032;-58
2022/10/08 14:25:58;;;;;;;1.08;0.68;;;;;;;;;;5078803;28;20111;-58
2022/10/08 14:28:24;;;;;;;1.08;0.70;;;;;;;;;;5076130;28;20039;-58
2022/10/08 14:30:50;;;;;;;1.58;0.80;;;;;;;;;;5077213;28;20031;-58
2022/10/08 14:33:16;;;;;;;0.63;0.63;;;;;;;;;;5075928;28;20020;-58
2022/10/08 14:35:42;;;;;;;2.22;1.10;;;;;;;;;;5079568;28;20047;-58
2022/10/08 14:38:08;;;;;;;0.98;0.68;;;;;;;;;;5080933;28;20028;-58
2022/10/08 14:40:35;;;;;;;0.63;0.60;;;;;;;;;;5073724;28;20035;-58
2022/10/08 14:43:01;;;;;;;0.60;0.60;;;;;;;;;;5074116;28;20120;-58
2022/10/08 14:45:27;;;;;;;2.13;0.65;;;;;;;;;;5076552;28;20454;-58
2022/10/08 14:47:53;;;;;;;1.95;1.00;;;;;;;;;;5079637;28;20034;-59
2022/10/08 14:50:19;;;;;;;1.40;0.70;;;;;;;;;;5082952;28;20624;-58
2022/10/08 14:52:46;;;;;;;1.45;0.75;;;;;;;;;;5082989;28;20109;-58
2022/10/08 14:55:13;;;;;;;1.75;0.85;;;;;;;;;;5083487;28;20032;-59
2022/10/08 14:57:39;;;;;;;0.98;0.88;;;;;;;;;;5083282;28;20066;-58
2022/10/08 15:00:06;;;;;;;0.68;0.68;;;;;;;;;;5084523;28;20036;-58